createdAt,value
2022-07-29T00:00:06.258Z,19.11
2022-07-29T00:01:05.827Z,19.11
2022-07-29T00:02:05.823Z,19.04
2022-07-29T00:03:06.283Z,19.02
2022-07-29T00:04:05.840Z,18.95
2022-07-29T00:05:05.805Z,19.00
2022-07-29T00:06:05.811Z,18.90
2022-07-29T00:07:06.019Z,18.99
2022-07-29T00:08:10.653Z,19.04
2022-07-29T00:09:05.775Z,18.99
2022-07-29T00:10:05.774Z,19.02
2022-07-29T00:11:05.785Z,19.04
2022-07-29T00:12:05.758Z,19.00
2022-07-29T00:13:05.785Z,18.99
2022-07-29T00:14:05.761Z,19.08
2022-07-29T00:15:05.748Z,19.07
2022-07-29T00:16:05.772Z,19.02
2022-07-29T00:17:05.727Z,19.04
2022-07-29T00:18:05.757Z,18.98
2022-07-29T00:19:05.724Z,19.00
2022-07-29T00:20:05.713Z,19.00
2022-07-29T00:21:05.725Z,19.00
2022-07-29T00:22:05.746Z,18.95
2022-07-29T00:23:05.713Z,18.88
2022-07-29T00:24:05.897Z,18.89
2022-07-29T00:25:05.708Z,18.90
2022-07-29T00:26:05.711Z,18.75
2022-07-29T00:27:05.686Z,18.83
2022-07-29T00:28:05.697Z,18.83
2022-07-29T00:29:33.184Z,18.81
2022-07-29T00:30:05.670Z,18.78
2022-07-29T00:31:05.765Z,18.68
2022-07-29T00:32:05.751Z,18.74
2022-07-29T00:33:09.000Z,18.70
2022-07-29T00:34:05.650Z,18.70
2022-07-29T00:35:05.642Z,18.63
2022-07-29T00:36:05.668Z,18.65
2022-07-29T00:37:05.668Z,18.70
2022-07-29T00:38:05.631Z,18.73
2022-07-29T00:39:05.628Z,18.71
2022-07-29T00:44:29.593Z,18.80
2022-07-29T00:45:29.604Z,18.80
2022-07-29T00:46:29.712Z,18.78
2022-07-29T00:47:29.551Z,18.78
2022-07-29T00:48:29.594Z,18.80
2022-07-29T00:49:29.635Z,18.77
2022-07-29T00:50:29.549Z,18.81
2022-07-29T00:51:29.558Z,18.75
2022-07-29T00:52:29.559Z,18.71
2022-07-29T00:53:29.559Z,18.80
2022-07-29T00:54:29.550Z,18.75
2022-07-29T00:55:29.544Z,18.74
2022-07-29T00:56:29.514Z,18.63
2022-07-29T00:57:29.532Z,18.65
2022-07-29T00:58:29.717Z,18.68
2022-07-29T00:59:35.228Z,18.66
2022-07-29T01:00:29.612Z,18.63
2022-07-29T01:01:29.601Z,18.65
2022-07-29T01:02:29.546Z,18.68
2022-07-29T01:03:29.526Z,18.66
2022-07-29T01:04:29.483Z,18.71
2022-07-29T01:05:49.860Z,18.77
2022-07-29T01:06:29.473Z,18.74
2022-07-29T01:07:29.452Z,18.73
2022-07-29T01:08:29.474Z,18.70
2022-07-29T01:09:35.016Z,18.68
2022-07-29T01:10:29.472Z,18.70
2022-07-29T01:11:29.443Z,18.63
2022-07-29T01:12:29.437Z,18.56
2022-07-29T01:13:29.447Z,18.62
2022-07-29T01:14:29.428Z,18.55
2022-07-29T01:15:29.445Z,18.52
2022-07-29T01:16:29.518Z,18.59
2022-07-29T01:17:29.423Z,18.52
2022-07-29T01:18:29.423Z,18.50
2022-07-29T01:19:30.613Z,18.44
2022-07-29T01:20:31.706Z,18.40
2022-07-29T01:21:29.399Z,18.40
2022-07-29T01:22:29.419Z,18.43
2022-07-29T01:23:29.418Z,18.41
2022-07-29T01:24:29.380Z,18.38
2022-07-29T01:25:29.391Z,18.33
2022-07-29T01:26:29.381Z,18.35
2022-07-29T01:27:29.380Z,18.29
2022-07-29T01:28:29.384Z,18.26
2022-07-29T01:29:31.008Z,18.23
2022-07-29T01:30:29.355Z,18.19
2022-07-29T01:31:29.390Z,18.15
2022-07-29T01:32:29.640Z,18.16
2022-07-29T01:33:29.331Z,18.11
2022-07-29T01:34:29.335Z,18.11
2022-07-29T01:35:29.362Z,18.05
2022-07-29T01:36:29.323Z,18.13
2022-07-29T01:37:29.321Z,18.16
2022-07-29T01:38:29.312Z,18.11
2022-07-29T01:39:29.298Z,18.08
2022-07-29T01:40:29.312Z,18.15
2022-07-29T01:41:29.340Z,18.05
2022-07-29T01:42:29.292Z,18.01
2022-07-29T01:43:29.282Z,18.04
2022-07-29T01:44:29.517Z,18.00
2022-07-29T01:45:29.453Z,18.11
2022-07-29T01:46:29.386Z,17.98
2022-07-29T01:47:29.654Z,18.00
2022-07-29T01:48:29.326Z,18.00
2022-07-29T01:49:29.679Z,18.10
2022-07-29T01:50:29.365Z,17.97
2022-07-29T01:51:29.507Z,18.01
2022-07-29T01:52:29.427Z,18.04
2022-07-29T01:53:29.309Z,18.00
2022-07-29T01:54:29.286Z,17.98
2022-07-29T01:55:29.430Z,17.98
2022-07-29T01:56:29.423Z,18.01
2022-07-29T01:57:29.333Z,17.97
2022-07-29T01:58:29.203Z,17.89
2022-07-29T01:59:29.549Z,17.82
2022-07-29T02:00:29.225Z,17.85
2022-07-29T02:01:29.245Z,17.83
2022-07-29T02:02:29.278Z,17.82
2022-07-29T02:05:59.925Z,17.74
2022-07-29T02:06:59.975Z,17.80
2022-07-29T02:07:59.873Z,17.83
2022-07-29T02:09:00.200Z,17.79
2022-07-29T02:48:25.726Z,17.19
2022-07-29T02:49:25.587Z,17.16
2022-07-29T02:50:25.358Z,17.09
2022-07-29T02:51:43.754Z,17.11
2022-07-29T02:52:25.571Z,17.12
2022-07-29T02:53:25.422Z,17.01
2022-07-29T02:54:25.396Z,17.06
2022-07-29T02:55:25.408Z,17.14
2022-07-29T02:56:25.319Z,17.06
2022-07-29T02:57:25.425Z,17.04
2022-07-29T02:58:25.304Z,16.97
2022-07-29T02:59:25.229Z,16.99
2022-07-29T03:00:25.262Z,17.01
2022-07-29T03:01:25.546Z,16.99
2022-07-29T03:02:25.792Z,16.94
2022-07-29T03:03:25.419Z,16.91
2022-07-29T03:04:25.501Z,16.94
2022-07-29T03:05:25.292Z,16.94
2022-07-29T03:06:28.527Z,16.79
2022-07-29T03:07:25.358Z,16.83
2022-07-29T03:08:25.206Z,16.83
2022-07-29T03:09:25.543Z,16.86
2022-07-29T03:10:25.468Z,16.75
2022-07-29T03:11:42.394Z,16.71
2022-07-29T03:12:25.328Z,16.76
2022-07-29T03:13:25.173Z,16.75
2022-07-29T03:14:25.135Z,16.71
2022-07-29T03:15:25.132Z,16.71
2022-07-29T03:16:25.295Z,16.71
2022-07-29T03:17:25.158Z,16.72
2022-07-29T03:18:25.107Z,16.78
2022-07-29T03:19:25.100Z,16.83
2022-07-29T03:20:25.084Z,16.81
2022-07-29T03:21:25.087Z,16.76
2022-07-29T03:22:25.290Z,16.86
2022-07-29T03:23:25.105Z,16.87
2022-07-29T03:24:25.079Z,16.79
2022-07-29T03:25:25.082Z,16.78
2022-07-29T03:26:25.069Z,16.89
2022-07-29T03:27:25.044Z,16.79
2022-07-29T03:28:26.934Z,16.79
2022-07-29T03:29:25.035Z,16.78
2022-07-29T03:30:25.027Z,16.72
2022-07-29T03:31:25.079Z,16.81
2022-07-29T03:32:25.302Z,16.83
2022-07-29T03:33:25.033Z,16.75
2022-07-29T03:34:25.020Z,16.75
2022-07-29T03:35:25.009Z,16.72
2022-07-29T03:36:25.000Z,16.71
2022-07-29T03:37:24.998Z,16.75
2022-07-29T03:38:24.992Z,16.78
2022-07-29T03:39:24.982Z,16.74
2022-07-29T03:40:24.988Z,16.76
2022-07-29T03:41:24.974Z,16.71
2022-07-29T03:51:58.738Z,16.68
2022-07-29T03:52:58.951Z,16.68
2022-07-29T03:53:58.721Z,16.68
2022-07-29T03:54:58.708Z,16.64
2022-07-29T03:55:58.710Z,16.57
2022-07-29T03:56:58.697Z,16.60
2022-07-29T03:57:58.729Z,16.56
2022-07-29T03:58:58.672Z,16.53
2022-07-29T03:59:58.710Z,16.46
2022-07-29T04:00:58.697Z,16.57
2022-07-29T04:01:58.759Z,16.57
2022-07-29T04:02:58.794Z,16.56
2022-07-29T04:03:58.786Z,16.50
2022-07-29T04:04:58.660Z,16.46
2022-07-29T04:05:58.645Z,16.49
2022-07-29T04:06:58.651Z,16.39
2022-07-29T04:07:58.669Z,16.39
2022-07-29T04:08:58.644Z,16.39
2022-07-29T04:09:58.621Z,16.46
2022-07-29T04:10:58.605Z,16.54
2022-07-29T04:12:02.454Z,16.60
2022-07-29T04:12:58.611Z,16.56
2022-07-29T04:13:58.608Z,16.57
2022-07-29T04:14:58.592Z,16.68
2022-07-29T04:15:58.676Z,16.60
2022-07-29T04:16:58.595Z,16.60
2022-07-29T04:17:58.580Z,16.61
2022-07-29T04:18:58.572Z,16.72
2022-07-29T04:19:58.555Z,16.72
2022-07-29T04:20:58.568Z,16.78
2022-07-29T04:21:58.574Z,16.71
2022-07-29T04:22:58.563Z,16.75
2022-07-29T04:23:58.550Z,16.86
2022-07-29T04:25:03.336Z,16.86
2022-07-29T04:25:58.523Z,16.89
2022-07-29T04:26:58.522Z,16.83
2022-07-29T04:27:58.594Z,16.86
2022-07-29T04:28:58.554Z,16.78
2022-07-29T04:29:58.509Z,16.81
2022-07-29T04:30:58.562Z,16.86
2022-07-29T04:31:58.488Z,16.91
2022-07-29T04:32:58.490Z,16.84
2022-07-29T04:33:58.502Z,16.93
2022-07-29T04:34:58.468Z,17.02
2022-07-29T04:35:58.476Z,16.96
2022-07-29T04:36:58.499Z,17.02
2022-07-29T04:37:58.490Z,17.05
2022-07-29T04:38:58.464Z,17.01
2022-07-29T04:39:58.442Z,17.12
2022-07-29T04:40:58.707Z,17.09
2022-07-29T04:41:58.458Z,17.09
2022-07-29T04:42:58.420Z,17.04
2022-07-29T04:43:58.417Z,16.96
2022-07-29T04:44:58.415Z,16.93
2022-07-29T04:45:58.436Z,16.90
2022-07-29T04:46:58.405Z,16.99
2022-07-29T04:47:58.402Z,16.99
2022-07-29T04:48:58.489Z,16.99
2022-07-29T04:49:58.383Z,16.94
2022-07-29T04:50:58.388Z,17.02
2022-07-29T04:51:58.379Z,17.01
2022-07-29T04:52:58.366Z,17.06
2022-07-29T04:53:58.372Z,17.04
2022-07-29T04:54:58.361Z,17.11
2022-07-29T04:55:58.381Z,17.14
2022-07-29T04:56:58.656Z,17.16
2022-07-29T04:57:58.340Z,17.19
2022-07-29T04:58:58.334Z,17.19
2022-07-29T04:59:58.320Z,17.24
2022-07-29T05:00:58.539Z,17.22
2022-07-29T05:01:58.445Z,17.27
2022-07-29T05:02:58.387Z,17.36
2022-07-29T05:04:00.449Z,17.22
2022-07-29T05:04:58.290Z,17.36
2022-07-29T05:05:58.323Z,17.36
2022-07-29T05:06:58.310Z,17.36
2022-07-29T05:07:58.320Z,17.42
2022-07-29T05:08:58.303Z,17.39
2022-07-29T05:09:58.300Z,17.46
2022-07-29T05:10:58.286Z,17.39
2022-07-29T05:11:58.289Z,17.41
2022-07-29T05:12:58.251Z,17.46
2022-07-29T05:13:58.268Z,17.45
2022-07-29T05:15:00.849Z,17.36
2022-07-29T05:15:58.294Z,17.48
2022-07-29T05:16:58.217Z,17.46
2022-07-29T05:17:58.241Z,17.44
2022-07-29T05:18:58.210Z,17.45
2022-07-29T05:19:58.247Z,17.38
2022-07-29T05:20:58.232Z,17.44
2022-07-29T05:21:58.214Z,17.51
2022-07-29T05:22:58.203Z,17.45
2022-07-29T05:23:58.232Z,17.45
2022-07-29T05:24:58.181Z,17.42
2022-07-29T05:25:58.211Z,17.42
2022-07-29T05:26:58.222Z,17.42
2022-07-29T05:27:58.166Z,17.39
2022-07-29T05:28:58.156Z,17.44
2022-07-29T05:29:58.164Z,17.45
2022-07-29T05:30:58.223Z,17.39
2022-07-29T05:31:58.199Z,17.51
2022-07-29T05:32:58.141Z,17.57
2022-07-29T05:33:58.145Z,17.51
2022-07-29T05:34:58.154Z,17.52
2022-07-29T05:36:00.591Z,17.60
2022-07-29T05:36:58.115Z,17.59
2022-07-29T05:37:58.125Z,17.57
2022-07-29T05:38:58.116Z,17.64
2022-07-29T05:39:59.132Z,17.57
2022-07-29T05:40:58.148Z,17.44
2022-07-29T05:41:58.098Z,17.45
2022-07-29T05:42:58.303Z,17.56
2022-07-29T05:43:58.091Z,17.59
2022-07-29T05:44:58.069Z,17.54
2022-07-29T05:45:58.203Z,17.70
2022-07-29T05:46:58.267Z,17.65
2022-07-29T05:47:58.062Z,17.63
2022-07-29T05:48:58.206Z,17.72
2022-07-29T05:49:58.042Z,17.68
2022-07-29T05:50:58.089Z,17.72
2022-07-29T05:51:58.039Z,17.67
2022-07-29T05:52:58.044Z,17.67
2022-07-29T05:53:58.264Z,17.67
2022-07-29T05:54:58.056Z,17.72
2022-07-29T05:55:58.020Z,17.71
2022-07-29T05:56:58.024Z,17.82
2022-07-29T05:57:58.012Z,17.80
2022-07-29T05:58:57.995Z,17.85
2022-07-29T05:59:57.987Z,17.85
2022-07-29T06:00:58.156Z,17.87
2022-07-29T06:01:58.299Z,17.87
2022-07-29T06:02:58.200Z,17.85
2022-07-29T06:03:58.020Z,17.87
2022-07-29T06:04:58.020Z,17.85
2022-07-29T06:05:57.964Z,18.01
2022-07-29T06:06:57.969Z,18.19
2022-07-29T06:07:58.004Z,18.35
2022-07-29T06:08:57.960Z,18.70
2022-07-29T06:09:57.946Z,18.80
2022-07-29T06:10:57.962Z,19.04
2022-07-29T06:11:57.929Z,19.15
2022-07-29T06:12:57.976Z,19.07
2022-07-29T06:13:57.937Z,19.12
2022-07-29T06:14:57.930Z,19.31
2022-07-29T06:15:58.019Z,19.41
2022-07-29T06:16:57.900Z,19.67
2022-07-29T06:17:59.371Z,19.76
2022-07-29T06:18:57.901Z,19.77
2022-07-29T06:19:57.891Z,19.62
2022-07-29T06:20:57.890Z,19.66
2022-07-29T06:21:57.880Z,19.62
2022-07-29T06:22:57.883Z,19.66
2022-07-29T06:23:57.883Z,19.55
2022-07-29T06:24:57.865Z,19.64
2022-07-29T06:25:57.890Z,19.67
2022-07-29T06:26:58.068Z,19.55
2022-07-29T06:27:57.895Z,19.76
2022-07-29T06:28:57.851Z,19.89
2022-07-29T06:29:57.848Z,20.13
2022-07-29T06:30:57.932Z,20.09
2022-07-29T06:31:57.850Z,19.94
2022-07-29T06:32:57.826Z,20.00
2022-07-29T06:33:57.836Z,20.04
2022-07-29T06:35:24.448Z,19.94
2022-07-29T06:35:57.807Z,20.10
2022-07-29T06:36:57.811Z,20.11
2022-07-29T06:37:59.588Z,20.31
2022-07-29T06:38:57.807Z,20.09
2022-07-29T06:39:59.595Z,20.24
2022-07-29T06:40:57.793Z,20.37
2022-07-29T06:41:57.904Z,20.37
2022-07-29T06:42:57.792Z,20.39
2022-07-29T06:43:57.891Z,20.48
2022-07-29T06:44:58.183Z,20.59
2022-07-29T06:45:57.887Z,20.72
2022-07-29T06:46:57.970Z,20.77
2022-07-29T06:47:58.004Z,20.81
2022-07-29T06:48:57.938Z,20.77
2022-07-29T06:49:57.865Z,20.88
2022-07-29T06:50:57.761Z,20.80
2022-07-29T06:52:57.996Z,20.75
2022-07-29T06:54:03.005Z,20.59
2022-07-29T06:54:58.090Z,20.62
2022-07-29T06:55:57.928Z,20.62
2022-07-29T06:56:57.785Z,20.51
2022-07-29T06:57:57.737Z,20.47
2022-07-29T06:58:57.759Z,20.44
2022-07-29T06:59:57.715Z,20.43
2022-07-29T07:00:57.970Z,20.55
2022-07-29T07:01:57.811Z,20.62
2022-07-29T07:02:57.790Z,20.69
2022-07-29T07:03:57.712Z,20.74
2022-07-29T07:04:57.699Z,20.81
2022-07-29T07:05:57.690Z,21.00
2022-07-29T07:06:58.112Z,21.30
2022-07-29T07:07:58.121Z,21.43
2022-07-29T07:08:57.707Z,21.55
2022-07-29T07:09:57.722Z,21.48
2022-07-29T07:10:57.843Z,21.52
2022-07-29T07:11:57.798Z,21.72
2022-07-29T07:12:57.681Z,22.00
2022-07-29T07:14:02.588Z,22.11
2022-07-29T07:14:57.652Z,22.23
2022-07-29T07:15:57.653Z,22.50
2022-07-29T07:16:57.741Z,22.53
2022-07-29T07:17:57.897Z,22.60
2022-07-29T07:18:57.856Z,22.32
2022-07-29T07:19:57.637Z,22.33
2022-07-29T07:20:57.624Z,22.33
2022-07-29T07:21:58.261Z,22.63
2022-07-29T07:22:57.621Z,22.80
2022-07-29T07:23:57.635Z,22.85
2022-07-29T07:24:57.628Z,23.02
2022-07-29T07:25:57.646Z,22.78
2022-07-29T07:26:57.610Z,22.84
2022-07-29T07:27:57.603Z,22.98
2022-07-29T07:28:57.613Z,23.21
2022-07-29T07:29:57.602Z,23.39
2022-07-29T07:30:57.815Z,23.44
2022-07-29T07:32:00.882Z,23.73
2022-07-29T07:32:57.596Z,23.71
2022-07-29T07:33:57.631Z,23.74
2022-07-29T07:34:57.623Z,23.68
2022-07-29T07:35:57.595Z,23.66
2022-07-29T07:36:57.576Z,23.84
2022-07-29T07:37:57.587Z,23.81
2022-07-29T07:38:57.579Z,23.81
2022-07-29T07:39:57.577Z,23.77
2022-07-29T07:40:57.572Z,23.41
2022-07-29T07:41:57.766Z,23.20
2022-07-29T07:42:57.583Z,23.24
2022-07-29T07:43:57.588Z,23.23
2022-07-29T07:45:13.140Z,23.17
2022-07-29T07:45:57.614Z,23.03
2022-07-29T07:46:57.566Z,23.05
2022-07-29T07:47:57.579Z,23.23
2022-07-29T07:48:57.631Z,23.54
2022-07-29T07:49:57.538Z,23.69
2022-07-29T07:50:57.555Z,23.69
2022-07-29T07:51:57.557Z,23.83
2022-07-29T07:52:57.546Z,23.86
2022-07-29T07:53:57.721Z,23.73
2022-07-29T07:54:57.531Z,23.66
2022-07-29T07:56:10.583Z,23.61
2022-07-29T07:56:57.544Z,23.41
2022-07-29T07:57:57.527Z,23.24
2022-07-29T07:58:57.728Z,23.20
2022-07-29T07:59:57.739Z,23.21
2022-07-29T08:00:58.013Z,23.34
2022-07-29T08:01:58.848Z,23.41
2022-07-29T08:02:57.689Z,23.39
2022-07-29T08:03:57.842Z,23.48
2022-07-29T08:04:57.829Z,23.63
2022-07-29T08:06:57.809Z,23.98
2022-07-29T08:07:58.096Z,24.10
2022-07-29T08:09:19.548Z,24.20
2022-07-29T08:09:57.783Z,24.35
2022-07-29T08:10:57.515Z,24.55
2022-07-29T08:11:57.645Z,24.70
2022-07-29T08:12:57.760Z,24.57
2022-07-29T08:13:57.801Z,24.57
2022-07-29T08:14:57.777Z,24.35
2022-07-29T08:15:58.923Z,24.21
2022-07-29T08:16:57.760Z,24.42
2022-07-29T08:17:57.753Z,24.66
2022-07-29T08:18:57.771Z,24.74
2022-07-29T08:19:58.207Z,24.80
2022-07-29T08:20:57.799Z,24.93
2022-07-29T08:21:57.559Z,25.10
2022-07-29T08:22:57.454Z,25.36
2022-07-29T08:24:01.764Z,25.51
2022-07-29T08:24:57.479Z,25.32
2022-07-29T08:25:57.459Z,25.28
2022-07-29T08:26:57.461Z,25.32
2022-07-29T08:27:57.456Z,25.23
2022-07-29T08:28:57.453Z,25.60
2022-07-29T08:29:57.502Z,25.59
2022-07-29T08:30:57.456Z,25.48
2022-07-29T08:31:57.486Z,25.47
2022-07-29T08:32:57.492Z,25.59
2022-07-29T08:33:57.513Z,25.35
2022-07-29T08:34:57.431Z,25.55
2022-07-29T08:35:57.441Z,25.43
2022-07-29T08:36:57.440Z,25.70
2022-07-29T08:37:57.434Z,25.98
2022-07-29T08:38:57.420Z,25.99
2022-07-29T08:39:57.431Z,26.15
2022-07-29T08:40:57.437Z,26.15
2022-07-29T08:41:57.812Z,26.29
2022-07-29T08:42:57.449Z,26.02
2022-07-29T08:43:57.439Z,25.99
2022-07-29T08:44:57.431Z,26.13
2022-07-29T08:45:57.464Z,25.91
2022-07-29T08:46:57.432Z,25.77
2022-07-29T08:47:57.407Z,25.78
2022-07-29T08:48:57.516Z,26.02
2022-07-29T08:49:57.415Z,26.22
2022-07-29T08:50:57.562Z,26.31
2022-07-29T08:51:57.740Z,26.45
2022-07-29T08:52:59.839Z,26.37
2022-07-29T08:53:57.649Z,26.51
2022-07-29T08:54:57.407Z,26.59
2022-07-29T08:55:57.398Z,26.66
2022-07-29T08:56:57.453Z,26.80
2022-07-29T08:57:57.608Z,26.65
2022-07-29T08:58:57.422Z,26.90
2022-07-29T08:59:57.657Z,27.07
2022-07-29T09:00:58.177Z,27.21
2022-07-29T09:01:57.799Z,27.40
2022-07-29T09:02:57.399Z,27.32
2022-07-29T09:03:57.430Z,27.12
2022-07-29T09:04:57.562Z,27.20
2022-07-29T09:05:57.409Z,26.90
2022-07-29T09:06:57.548Z,26.85
2022-07-29T09:07:57.532Z,26.85
2022-07-29T09:08:57.586Z,27.03
2022-07-29T09:09:57.381Z,27.25
2022-07-29T09:10:57.388Z,27.68
2022-07-29T09:11:57.922Z,27.74
2022-07-29T09:12:57.383Z,27.55
2022-07-29T09:13:57.411Z,27.51
2022-07-29T09:14:57.392Z,27.45
2022-07-29T09:15:57.686Z,27.36
2022-07-29T09:16:57.662Z,27.26
2022-07-29T09:17:57.387Z,27.22
2022-07-29T09:18:57.382Z,27.40
2022-07-29T09:19:57.383Z,27.45
2022-07-29T09:20:57.373Z,27.54
2022-07-29T09:21:57.521Z,27.60
2022-07-29T09:22:57.980Z,27.85
2022-07-29T09:23:57.377Z,27.73
2022-07-29T09:24:57.755Z,27.58
2022-07-29T09:25:57.461Z,27.58
2022-07-29T09:26:57.592Z,27.80
2022-07-29T09:27:58.139Z,28.02
2022-07-29T09:28:57.859Z,27.98
2022-07-29T09:29:58.400Z,28.19
2022-07-29T09:30:57.617Z,28.63
2022-07-29T09:31:57.704Z,28.85
2022-07-29T09:32:57.639Z,28.82
2022-07-29T09:33:57.617Z,29.07
2022-07-29T09:34:58.524Z,28.94
2022-07-29T09:35:57.809Z,29.05
2022-07-29T09:36:58.319Z,28.88
2022-07-29T09:37:57.647Z,28.74
2022-07-29T09:38:57.827Z,28.79
2022-07-29T09:39:57.899Z,28.84
2022-07-29T09:40:57.672Z,29.10
2022-07-29T09:41:57.746Z,29.01
2022-07-29T09:42:57.451Z,29.02
2022-07-29T09:43:57.367Z,29.07
2022-07-29T09:44:57.359Z,29.04
2022-07-29T09:45:57.426Z,28.84
2022-07-29T09:46:58.052Z,28.81
2022-07-29T09:47:57.367Z,28.81
2022-07-29T09:48:58.092Z,28.70
2022-07-29T09:49:57.562Z,28.67
2022-07-29T09:50:57.389Z,28.74
2022-07-29T09:51:57.368Z,28.76
2022-07-29T09:52:57.393Z,28.86
2022-07-29T09:53:57.371Z,28.89
2022-07-29T09:54:57.363Z,29.10
2022-07-29T09:55:57.381Z,29.51
2022-07-29T09:56:57.753Z,29.71
2022-07-29T09:57:57.364Z,29.72
2022-07-29T09:58:57.378Z,29.93
2022-07-29T09:59:57.374Z,29.84
2022-07-29T10:00:57.416Z,29.82
2022-07-29T10:01:57.777Z,29.95
2022-07-29T10:02:57.385Z,30.13
2022-07-29T10:03:57.373Z,29.72
2022-07-29T10:04:57.403Z,29.72
2022-07-29T10:05:57.362Z,29.57
2022-07-29T10:07:03.952Z,29.20
2022-07-29T10:07:57.702Z,29.10
2022-07-29T10:08:57.563Z,28.97
2022-07-29T10:09:57.371Z,28.97
2022-07-29T10:10:57.366Z,29.07
2022-07-29T10:11:57.568Z,28.98
2022-07-29T10:12:57.378Z,29.01
2022-07-29T10:13:57.376Z,29.13
2022-07-29T10:14:57.383Z,29.35
2022-07-29T10:15:57.416Z,29.47
2022-07-29T10:16:57.374Z,29.32
2022-07-29T10:17:57.374Z,28.89
2022-07-29T10:18:57.400Z,28.45
2022-07-29T10:20:00.217Z,28.47
2022-07-29T10:20:57.382Z,28.48
2022-07-29T10:21:58.228Z,28.57
2022-07-29T10:22:57.369Z,28.85
2022-07-29T10:24:01.118Z,28.97
2022-07-29T10:24:57.364Z,29.10
2022-07-29T10:25:57.573Z,29.12
2022-07-29T10:26:57.386Z,28.96
2022-07-29T10:27:57.390Z,28.88
2022-07-29T10:28:57.384Z,28.75
2022-07-29T10:29:57.373Z,28.79
2022-07-29T10:30:57.675Z,28.69
2022-07-29T10:31:57.665Z,28.88
2022-07-29T10:32:57.388Z,28.86
2022-07-29T10:33:57.384Z,28.70
2022-07-29T10:34:57.620Z,28.63
2022-07-29T10:35:57.417Z,28.62
2022-07-29T10:36:57.653Z,28.70
2022-07-29T10:37:57.364Z,28.82
2022-07-29T10:38:57.385Z,28.72
2022-07-29T10:39:57.584Z,28.56
2022-07-29T10:40:57.450Z,28.67
2022-07-29T10:41:57.792Z,28.52
2022-07-29T10:42:57.382Z,28.47
2022-07-29T10:43:57.378Z,28.45
2022-07-29T10:44:57.370Z,28.59
2022-07-29T10:45:57.407Z,28.52
2022-07-29T10:46:57.446Z,28.64
2022-07-29T10:47:57.382Z,28.52
2022-07-29T10:48:57.425Z,28.57
2022-07-29T10:49:57.372Z,28.54
2022-07-29T10:50:57.415Z,28.67
2022-07-29T10:51:58.057Z,28.47
2022-07-29T10:52:57.368Z,28.66
2022-07-29T10:53:57.369Z,28.78
2022-07-29T10:54:57.376Z,28.79
2022-07-29T10:55:57.363Z,28.93
2022-07-29T10:56:57.733Z,28.81
2022-07-29T10:57:57.617Z,28.96
2022-07-29T10:58:57.436Z,29.12
2022-07-29T10:59:57.363Z,29.22
2022-07-29T11:00:57.590Z,29.17
2022-07-29T11:02:27.826Z,29.16
2022-07-29T11:02:57.567Z,29.16
2022-07-29T11:03:57.381Z,28.98
2022-07-29T11:04:57.365Z,28.97
2022-07-29T11:05:59.948Z,29.17
2022-07-29T11:06:57.366Z,29.35
2022-07-29T11:07:57.562Z,29.56
2022-07-29T11:08:57.392Z,29.68
2022-07-29T11:09:57.380Z,29.81
2022-07-29T11:10:57.454Z,29.88
2022-07-29T11:11:57.699Z,30.09
2022-07-29T11:13:41.420Z,29.87
2022-07-29T11:14:39.786Z,29.69
2022-07-29T11:15:39.780Z,29.76
2022-07-29T11:16:39.773Z,29.78
2022-07-29T11:17:51.909Z,29.56
2022-07-29T11:18:39.820Z,29.47
2022-07-29T11:19:40.385Z,29.42
2022-07-29T11:20:39.782Z,29.24
2022-07-29T11:21:55.365Z,29.29
2022-07-29T11:22:43.052Z,29.34
2022-07-29T11:23:39.777Z,29.49
2022-07-29T11:24:50.255Z,29.26
2022-07-29T11:26:39.810Z,29.26
2022-07-29T11:27:39.918Z,29.36
2022-07-29T11:28:39.777Z,29.32
2022-07-29T11:29:39.846Z,29.35
2022-07-29T11:30:42.410Z,29.27
2022-07-29T11:32:29.460Z,29.08
2022-07-29T11:34:27.974Z,28.91
2022-07-29T11:35:37.371Z,28.89
2022-07-29T11:36:28.299Z,28.84
2022-07-29T11:38:27.675Z,28.96
2022-07-29T11:39:27.173Z,28.85
2022-07-29T11:40:27.177Z,29.01
2022-07-29T11:41:27.362Z,29.02
2022-07-29T11:42:32.380Z,29.17
2022-07-29T11:43:27.181Z,29.32
2022-07-29T11:46:27.199Z,29.39
2022-07-29T11:47:27.363Z,29.32
2022-07-29T11:48:29.785Z,29.38
2022-07-29T11:50:27.269Z,29.19
2022-07-29T11:51:32.694Z,29.12
2022-07-29T11:52:27.170Z,29.08
2022-07-29T11:53:29.241Z,29.14
2022-07-29T11:54:27.415Z,29.05
2022-07-29T11:55:32.264Z,29.08
2022-07-29T11:56:27.189Z,29.04
2022-07-29T11:57:36.605Z,29.13
2022-07-29T11:58:27.370Z,29.16
2022-07-29T11:59:33.476Z,29.10
2022-07-29T12:00:27.184Z,29.07
2022-07-29T12:01:27.171Z,29.13
2022-07-29T12:02:37.567Z,29.05
2022-07-29T12:03:33.545Z,29.04
2022-07-29T12:04:27.181Z,28.84
2022-07-29T12:05:36.922Z,28.86
2022-07-29T12:06:27.165Z,28.91
2022-07-29T12:07:01.291Z,29.26
2022-07-29T12:07:02.109Z,29.27
2022-07-29T12:07:34.841Z,28.88
2022-07-29T12:08:27.167Z,28.98
2022-07-29T12:09:27.174Z,28.94
2022-07-29T12:10:30.407Z,29.07
2022-07-29T12:11:27.169Z,28.98
2022-07-29T12:12:27.159Z,29.04
2022-07-29T12:13:37.470Z,28.89
2022-07-29T12:14:27.177Z,28.81
2022-07-29T12:15:31.496Z,28.42
2022-07-29T12:16:29.551Z,28.47
2022-07-29T12:17:27.161Z,28.38
2022-07-29T12:18:27.167Z,28.25
2022-07-29T12:19:27.179Z,28.32
2022-07-29T12:20:27.182Z,28.35
2022-07-29T12:21:29.135Z,28.33
2022-07-29T12:22:27.178Z,28.48
2022-07-29T12:23:29.520Z,28.49
2022-07-29T12:24:27.545Z,28.51
2022-07-29T12:25:34.627Z,28.56
2022-07-29T12:26:27.160Z,28.44
2022-07-29T12:27:29.475Z,28.42
2022-07-29T12:28:27.487Z,28.49
2022-07-29T12:29:33.784Z,28.52
2022-07-29T12:30:27.153Z,28.63
2022-07-29T12:31:43.988Z,28.62
2022-07-29T12:32:27.205Z,28.49
2022-07-29T12:33:27.159Z,28.52
2022-07-29T12:34:27.360Z,28.39
2022-07-29T12:35:27.142Z,28.33
2022-07-29T12:36:27.158Z,28.20
2022-07-29T12:37:35.759Z,28.14
2022-07-29T12:38:27.149Z,28.11
2022-07-29T12:39:31.308Z,28.12
2022-07-29T12:40:27.158Z,28.14
2022-07-29T12:41:27.303Z,28.32
2022-07-29T12:42:27.173Z,28.23
2022-07-29T12:43:27.159Z,28.17
2022-07-29T12:44:27.349Z,28.22
2022-07-29T12:45:27.147Z,28.25
2022-07-29T12:46:27.226Z,28.30
2022-07-29T12:47:27.150Z,28.26
2022-07-29T12:48:27.348Z,28.30
2022-07-29T12:49:27.285Z,28.22
2022-07-29T12:50:27.154Z,28.30
2022-07-29T12:51:27.137Z,28.32
2022-07-29T12:52:27.146Z,28.32
2022-07-29T12:53:27.131Z,28.26
2022-07-29T12:54:27.137Z,28.17
2022-07-29T12:55:27.152Z,28.11
2022-07-29T12:56:42.381Z,28.11
2022-07-29T12:57:27.551Z,28.07
2022-07-29T12:58:27.139Z,28.10
2022-07-29T12:59:27.129Z,28.01
2022-07-29T13:00:27.229Z,27.93
2022-07-29T13:01:27.327Z,28.04
2022-07-29T13:02:27.180Z,28.00
2022-07-29T13:03:27.136Z,28.00
2022-07-29T13:04:27.322Z,27.95
2022-07-29T13:05:27.144Z,27.93
2022-07-29T13:06:27.138Z,27.95
2022-07-29T13:07:54.051Z,28.00
2022-07-29T13:08:27.131Z,27.98
2022-07-29T13:09:27.122Z,27.98
2022-07-29T13:10:27.124Z,28.00
2022-07-29T13:11:27.341Z,27.87
2022-07-29T13:12:27.145Z,27.86
2022-07-29T13:13:27.131Z,27.85
2022-07-29T13:14:27.122Z,27.85
2022-07-29T13:15:27.155Z,27.87
2022-07-29T13:16:27.142Z,28.00
2022-07-29T13:17:27.112Z,28.02
2022-07-29T13:18:27.141Z,28.00
2022-07-29T13:19:27.155Z,27.92
2022-07-29T13:20:27.130Z,27.89
2022-07-29T13:21:27.110Z,27.82
2022-07-29T13:22:27.108Z,27.93
2022-07-29T13:23:27.130Z,27.95
2022-07-29T13:24:27.102Z,27.80
2022-07-29T13:26:19.527Z,27.89
2022-07-29T13:27:19.520Z,27.85
2022-07-29T13:28:19.530Z,27.80
2022-07-29T13:29:19.514Z,27.86
2022-07-29T13:30:19.513Z,27.82
2022-07-29T13:31:19.504Z,27.83
2022-07-29T13:32:19.516Z,27.83
2022-07-29T13:33:19.499Z,27.85
2022-07-29T13:34:19.534Z,27.90
2022-07-29T13:35:19.512Z,27.80
2022-07-29T13:36:19.509Z,27.80
2022-07-29T13:37:19.489Z,27.80
2022-07-29T13:38:19.535Z,27.85
2022-07-29T13:39:19.503Z,27.82
2022-07-29T13:40:19.527Z,27.77
2022-07-29T13:41:19.489Z,27.75
2022-07-29T13:42:19.517Z,27.80
2022-07-29T13:43:19.488Z,27.89
2022-07-29T13:44:19.512Z,28.01
2022-07-29T13:45:19.525Z,28.11
2022-07-29T13:46:19.590Z,28.20
2022-07-29T13:47:19.479Z,28.25
2022-07-29T13:48:19.488Z,28.25
2022-07-29T13:49:19.639Z,28.44
2022-07-29T13:50:19.521Z,28.38
2022-07-29T13:51:19.697Z,28.32
2022-07-29T13:52:19.502Z,28.26
2022-07-29T13:53:19.519Z,28.26
2022-07-29T13:54:19.509Z,28.20
2022-07-29T13:55:19.475Z,28.05